Time;durP1;ratioP1;P1;durP2;ratioP2;P2;SDS_P1;SDS_P2;PMS_P1;PMS_P2;Temp;Humidity;BMP_temperature;BMP_pressure;BME280_temperature;BME280_humidity;BME280_pressure;Samples;Min_cycle;Max_cycle;Signal;HPM_P1;HPM_P2
2022/04/26 03:37:25;;;;;;;0.50;0.50;;;9.70;99.90;9.10;101454.00;;;;5116500;28;20195;-71
2022/04/26 03:39:51;;;;;;;2.40;1.50;;;9.70;99.90;9.10;101455.00;;;;5115397;28;20172;-72
2022/04/26 03:42:20;;;;;;;0.30;0.30;;;9.70;99.90;9.10;101459.00;;;;5115348;28;20196;-72
2022/04/26 03:44:46;;;;;;;0.50;0.50;;;9.70;99.90;8.90;101452.00;;;;5114233;28;20177;-71
2022/04/26 03:47:12;;;;;;;0.47;0.47;;;9.70;99.90;9.10;101445.00;;;;5115899;28;20176;-72
2022/04/26 03:49:38;;;;;;;1.03;0.93;;;9.70;99.90;9.10;101466.00;;;;5116430;28;20190;-72
2022/04/26 03:52:04;;;;;;;0.47;0.47;;;9.80;99.90;8.90;101461.00;;;;5114910;28;20201;-72
2022/04/26 03:54:30;;;;;;;0.50;0.50;;;9.70;99.90;8.80;101466.00;;;;5097188;28;20646;-72
2022/04/26 03:56:56;;;;;;;0.93;0.83;;;9.60;99.90;8.60;101468.00;;;;5116662;28;20172;-72
2022/04/26 03:59:22;;;;;;;0.90;0.90;;;9.60;99.90;8.90;101451.00;;;;5116434;28;20666;-72
2022/04/26 04:01:48;;;;;;;0.30;0.30;;;9.60;99.90;9.10;101461.00;;;;5115560;28;20190;-72
2022/04/26 04:04:15;;;;;;;2.00;0.90;;;9.70;99.90;8.90;101463.00;;;;5116193;28;20238;-72
2022/04/26 04:06:41;;;;;;;0.30;0.30;;;9.60;99.90;9.00;101458.00;;;;5097743;28;20176;-72
2022/04/26 04:09:07;;;;;;;0.77;0.77;;;9.70;99.90;9.00;101463.00;;;;5097942;28;20284;-72
2022/04/26 04:11:33;;;;;;;0.30;0.30;;;9.70;99.90;8.90;101462.00;;;;5115250;28;20274;-72
2022/04/26 04:13:59;;;;;;;0.50;0.50;;;9.70;99.90;8.90;101461.00;;;;5114087;28;20198;-70
2022/04/26 04:16:24;;;;;;;1.00;1.00;;;9.60;99.90;9.10;101450.00;;;;5116109;28;20176;-71
2022/04/26 04:21:40;;;;;;;0.40;0.40;;;9.70;99.90;8.90;101464.00;;;;5114580;28;20206;-72
2022/04/26 04:24:08;;;;;;;0.40;0.40;;;9.70;99.90;9.00;101469.00;;;;5114545;28;20180;-72
2022/04/26 04:26:34;;;;;;;0.30;0.30;;;9.60;99.90;9.10;101471.00;;;;5115924;28;20195;-73
2022/04/26 04:29:01;;;;;;;0.97;0.80;;;9.60;99.90;8.90;101429.00;;;;5125461;27;20186;-72
2022/04/26 04:31:27;;;;;;;1.70;1.60;;;9.70;99.90;8.90;101472.00;;;;5134654;27;20215;-72
2022/04/26 04:33:53;;;;;;;0.53;0.53;;;9.60;99.90;9.10;101465.00;;;;5135115;27;20191;-73
2022/04/26 04:36:21;;;;;;;0.20;0.20;;;9.70;99.90;9.20;101481.00;;;;5118098;27;20184;-73
2022/04/26 04:38:47;;;;;;;0.30;0.30;;;9.70;99.90;9.90;101460.00;;;;5117940;27;20199;-74
2022/04/26 04:41:13;;;;;;;0.43;0.43;;;10.00;99.90;10.20;101506.00;;;;5117840;27;20214;-74
2022/04/26 04:43:44;;;;;;;1.30;1.30;;;10.30;99.90;10.10;101470.00;;;;5117714;27;20176;-74
2022/04/26 04:46:10;;;;;;;0.20;0.20;;;10.40;99.90;9.80;101463.00;;;;5134000;27;20171;-74
2022/04/26 04:48:36;;;;;;;6.40;0.90;;;10.30;99.90;9.80;101493.00;;;;5117449;27;20180;-74
2022/04/26 04:51:07;;;;;;;0.77;0.70;;;10.30;99.90;9.20;101438.00;;;;5134705;27;20206;-74
2022/04/26 04:53:38;;;;;;;0.30;0.30;;;10.10;99.90;9.10;101471.00;;;;5118142;27;20631;-74
2022/04/26 04:56:09;;;;;;;0.60;0.60;;;9.90;99.90;9.30;101489.00;;;;5136058;27;20155;-73
2022/04/26 04:58:34;;;;;;;0.77;0.67;;;10.00;99.90;9.10;101485.00;;;;5117768;27;20178;-73
2022/04/26 05:01:00;;;;;;;0.30;0.30;;;9.90;99.90;9.60;101493.00;;;;5116823;27;20248;-73
2022/04/26 05:03:26;;;;;;;0.30;0.30;;;10.00;99.90;9.30;101494.00;;;;5117620;27;20187;-73
2022/04/26 05:05:52;;;;;;;0.73;0.73;;;10.00;99.90;9.10;101489.00;;;;5117664;27;20669;-73
2022/04/26 05:08:18;;;;;;;0.87;0.87;;;9.90;99.90;9.40;101470.00;;;;5133628;27;20225;-73
2022/04/26 05:10:44;;;;;;;0.50;0.50;;;10.00;99.90;9.20;101509.00;;;;5115337;27;20547;-73
2022/04/26 05:13:10;;;;;;;0.30;0.30;;;10.00;99.90;9.30;101477.00;;;;5133133;27;20195;-72
2022/04/26 05:15:39;;;;;;;0.50;0.50;;;10.00;99.90;9.40;101508.00;;;;5134293;27;20563;-73
2022/04/26 05:18:06;;;;;;;1.43;1.13;;;10.00;99.90;9.30;101512.00;;;;5134634;27;20251;-71
2022/04/26 05:20:32;;;;;;;0.57;0.57;;;9.90;99.90;10.10;101521.00;;;;5134698;27;20180;-72
2022/04/26 05:25:42;;;;;;;0.40;0.40;;;10.30;99.90;9.70;101523.00;;;;5134094;27;20163;-73
2022/04/26 05:28:11;;;;;;;0.70;0.70;;;10.30;99.90;10.00;101521.00;;;;5133605;27;20175;-73
2022/04/26 05:30:37;;;;;;;2.03;1.23;;;10.40;99.90;9.30;101520.00;;;;5133919;27;20261;-73
2022/04/26 05:33:02;;;;;;;1.07;0.97;;;10.20;99.90;9.10;101493.00;;;;5135022;27;20425;-72
2022/04/26 05:35:30;;;;;;;0.30;0.30;;;10.00;99.90;9.30;101521.00;;;;5116801;27;20651;-72
2022/04/26 05:38:02;;;;;;;1.37;1.30;;;10.00;99.90;9.10;101533.00;;;;5133734;27;20677;-72
2022/04/26 05:40:31;;;;;;;3.27;0.80;;;10.00;99.90;9.30;101535.00;;;;5115099;27;20183;-72
2022/04/26 05:42:59;;;;;;;0.30;0.30;;;10.00;99.90;9.30;101537.00;;;;5106356;27;20191;-72
2022/04/26 05:45:27;;;;;;;0.30;0.30;;;10.00;99.90;9.80;101505.00;;;;5115703;27;20184;-72
2022/04/26 05:47:56;;;;;;;0.57;0.57;;;10.20;99.90;9.70;101541.00;;;;5133361;27;20229;-72
2022/04/26 05:50:22;;;;;;;0.47;0.47;;;10.30;99.90;9.70;101547.00;;;;5116706;27;20182;-72
2022/04/26 05:52:48;;;;;;;0.40;0.40;;;10.30;99.90;10.10;101543.00;;;;5124024;27;20287;-72
2022/04/26 05:55:16;;;;;;;0.53;0.53;;;10.40;99.90;9.70;101546.00;;;;5113011;28;20597;-72
2022/04/26 05:57:44;;;;;;;6.73;2.93;;;10.40;99.90;9.80;101542.00;;;;5114107;28;20333;-72
2022/04/26 06:00:13;;;;;;;0.43;0.43;;;10.30;99.90;10.00;101545.00;;;;5113154;28;20176;-72
2022/04/26 06:02:45;;;;;;;0.53;0.53;;;10.50;99.90;9.90;101544.00;;;;5104722;28;20253;-72
2022/04/26 06:05:11;;;;;;;0.53;0.53;;;10.50;99.90;9.60;101547.00;;;;5113157;28;20255;-72
2022/04/26 06:07:37;;;;;;;0.70;0.70;;;10.40;99.90;10.00;101548.00;;;;5112583;28;20211;-72
2022/04/26 06:10:04;;;;;;;0.40;0.40;;;10.50;99.90;10.10;101558.00;;;;5113027;28;20256;-73
2022/04/26 06:12:33;;;;;;;0.30;0.30;;;10.50;99.90;10.50;101519.00;;;;5124120;27;20207;-73
2022/04/26 06:15:03;;;;;;;0.30;0.30;;;10.70;99.90;10.10;101559.00;;;;5113458;28;20184;-73
2022/04/26 06:17:29;;;;;;;0.63;0.63;;;10.60;99.90;10.00;101556.00;;;;5111834;28;20275;-73
2022/04/26 06:19:55;;;;;;;0.30;0.30;;;10.50;99.90;10.20;101569.00;;;;5112545;28;20299;-73
2022/04/26 06:22:21;;;;;;;1.17;1.07;;;10.70;99.90;9.70;101561.00;;;;5115476;27;20188;-72
2022/04/26 06:24:51;;;;;;;0.30;0.30;;;10.50;99.90;9.70;101569.00;;;;5095071;28;20187;-74
2022/04/26 06:27:18;;;;;;;0.70;0.70;;;10.40;99.90;10.00;101579.00;;;;5095406;28;20552;-74
2022/04/26 06:29:44;;;;;;;0.73;0.73;;;10.50;99.90;9.90;101587.00;;;;5112668;28;20168;-74
2022/04/26 06:32:13;;;;;;;0.57;0.57;;;10.60;99.90;9.60;101564.00;;;;5117700;28;20216;-73
2022/04/26 06:34:39;;;;;;;0.47;0.47;;;10.40;99.90;10.30;101596.00;;;;5114735;28;20189;-74
2022/04/26 06:37:08;;;;;;;1.13;1.13;;;10.60;99.90;10.30;101580.00;;;;5115657;28;20267;-73
2022/04/26 06:39:37;;;;;;;2.27;0.93;;;10.70;99.90;10.40;101587.00;;;;5133066;28;20259;-73
2022/04/26 06:42:06;;;;;;;0.40;0.40;;;10.80;99.90;9.90;101592.00;;;;5132836;28;20636;-74
2022/04/26 06:44:34;;;;;;;0.50;0.50;;;10.60;99.90;10.10;101596.00;;;;5112427;28;20183;-70
2022/04/26 06:47:03;;;;;;;1.47;1.43;;;10.60;99.90;9.80;101595.00;;;;5113473;28;20572;-74
2022/04/26 06:49:30;;;;;;;0.70;0.70;;;10.50;99.90;10.20;101595.00;;;;5103758;28;20191;-76
2022/04/26 06:51:55;;;;;;;1.63;1.53;;;10.60;99.90;10.10;101599.00;;;;5127732;27;20207;-74
2022/04/26 06:54:21;;;;;;;4.23;2.57;;;10.80;99.90;9.90;101615.00;;;;5136189;27;20508;-75
2022/04/26 06:56:47;;;;;;;0.70;0.70;;;10.70;99.90;10.20;101605.00;;;;5124735;27;20185;-76
2022/04/26 06:59:13;;;;;;;7.23;2.70;;;10.80;99.90;10.40;101595.00;;;;5110531;27;20275;-75
2022/04/26 07:01:40;;;;;;;2.70;1.50;;;11.00;99.90;10.40;101607.00;;;;5134825;27;20562;-75
2022/04/26 07:04:08;;;;;;;0.90;0.90;;;11.00;99.90;10.00;101613.00;;;;5137443;27;20223;-74
2022/04/26 07:06:34;;;;;;;2.50;1.57;;;10.90;99.90;10.30;101606.00;;;;5137163;27;20604;-74
2022/04/26 07:09:03;;;;;;;4.77;1.63;;;11.00;99.90;10.10;101615.00;;;;5112650;27;20185;-75
2022/04/26 07:11:32;;;;;;;0.90;0.90;;;10.90;99.90;9.90;101608.00;;;;5117364;28;20550;-74
2022/04/26 07:14:01;;;;;;;0.70;0.60;;;10.80;99.90;10.30;101608.00;;;;5099385;28;20633;-74
2022/04/26 07:16:33;;;;;;;1.57;1.47;;;10.90;99.90;10.00;101618.00;;;;5120320;27;20272;-74
2022/04/26 07:18:59;;;;;;;0.30;0.30;;;10.80;99.90;10.50;101620.00;;;;5125672;27;20207;-75
2022/04/26 07:21:47;;;;;;;2.03;1.80;;;10.90;99.90;10.50;101637.00;;;;5104872;28;20653;-75
2022/04/26 07:24:14;;;;;;;0.50;0.50;;;11.10;99.90;10.80;101631.00;;;;5115004;28;20544;-68
2022/04/26 07:26:42;;;;;;;0.30;0.30;;;11.20;99.90;10.80;101638.00;;;;5115531;28;20242;-69
2022/04/26 07:29:09;;;;;;;0.97;0.80;;;11.30;99.90;10.30;101630.00;;;;5099499;28;20183;-69
2022/04/26 07:31:36;;;;;;;1.33;1.13;;;11.10;99.90;10.40;101627.00;;;;5098906;28;20220;-71
2022/04/26 07:34:20;;;;;;;0.37;0.37;;;11.10;99.90;10.40;101646.00;;;;5116957;28;20307;-71
2022/04/26 07:37:04;;;;;;;2.93;1.03;;;11.10;99.90;10.70;101644.00;;;;5117052;28;20173;-71
2022/04/26 07:39:33;;;;;;;2.63;1.17;;;11.30;99.90;10.70;101649.00;;;;5116824;28;20667;-71
2022/04/26 07:42:09;;;;;;;0.50;0.50;;;11.40;99.90;11.20;101618.00;;;;5117164;28;20264;-71
2022/04/26 07:44:35;;;;;;;0.30;0.30;;;11.70;99.90;10.90;101658.00;;;;5115477;28;20308;-71
2022/04/26 07:47:11;;;;;;;0.97;0.97;;;11.60;99.90;11.40;101658.00;;;;5115402;28;20274;-71
2022/04/26 07:50:07;;;;;;;1.00;0.97;;;11.80;99.90;11.20;101652.00;;;;5107974;27;20186;-71
2022/04/26 07:52:34;;;;;;;1.00;1.00;;;11.90;99.90;11.50;101632.00;;;;5115426;28;20320;-70
2022/04/26 07:55:01;;;;;;;1.57;1.47;;;11.90;99.90;11.00;101665.00;;;;5097976;28;20183;-68
2022/04/26 07:57:29;;;;;;;1.60;1.47;;;11.80;99.90;11.00;101663.00;;;;5098637;28;20199;-68
2022/04/26 08:00:04;;;;;;;0.60;0.60;;;11.80;99.90;12.10;101669.00;;;;5115315;28;20615;-67
2022/04/26 08:02:32;;;;;;;0.93;0.93;;;12.30;99.90;12.00;101666.00;;;;5120522;27;20206;-67
2022/04/26 08:05:04;;;;;;;0.70;0.60;;;12.50;99.90;11.50;101673.00;;;;5135326;27;20631;-66
2022/04/26 08:07:39;;;;;;;5.40;1.03;;;12.30;99.90;12.30;101678.00;;;;5136043;27;20180;-67
2022/04/26 08:10:12;;;;;;;0.43;0.43;;;12.50;99.90;12.20;101692.00;;;;5118704;27;20638;-67
2022/04/26 08:12:43;;;;;;;0.57;0.57;;;12.80;99.90;13.00;101693.00;;;;5135384;27;20219;-67
2022/04/26 08:15:19;;;;;;;2.30;2.10;;;13.10;99.90;12.20;101692.00;;;;5135492;27;20219;-68
2022/04/26 08:17:51;;;;;;;0.73;0.73;;;12.90;99.90;13.00;101703.00;;;;5135397;27;20176;-67
2022/04/26 08:20:24;;;;;;;1.80;0.67;;;13.10;99.90;13.10;101723.00;;;;5117651;27;20180;-67
2022/04/26 08:22:53;;;;;;;2.90;1.73;;;13.40;99.90;12.70;101723.00;;;;5119334;27;20550;-67
2022/04/26 08:28:06;;;;;;;0.33;0.33;;;12.80;99.90;12.60;101764.00;;;;5135380;27;20180;-66
2022/04/26 08:30:33;;;;;;;1.50;1.37;;;12.90;99.90;11.90;101761.00;;;;5135303;27;20169;-68
2022/04/26 08:33:00;;;;;;;1.10;0.87;;;12.70;99.90;12.10;101777.00;;;;5135007;27;20579;-68
2022/04/26 08:35:27;;;;;;;0.87;0.83;;;12.70;99.90;12.00;101787.00;;;;5136290;27;20598;-68
2022/04/26 08:37:58;;;;;;;1.53;1.13;;;12.60;99.90;12.30;101781.00;;;;5117835;27;20181;-68
2022/04/26 08:40:26;;;;;;;0.60;0.60;;;12.70;99.90;12.90;101791.00;;;;5134780;27;20173;-75
2022/04/26 08:42:52;;;;;;;1.50;1.13;;;13.20;99.90;12.80;101819.00;;;;5114602;27;20755;-69
2022/04/26 08:45:20;;;;;;;2.00;1.83;;;13.30;99.90;13.30;101833.00;;;;5129941;27;20690;-69
2022/04/26 08:53:26;;;;;;;3.07;0.67;;;14.90;99.90;15.60;101890.00;;;;5133764;27;20209;-71
2022/04/26 08:56:04;;;;;;;2.97;1.20;;;15.60;99.90;15.00;101887.00;;;;5134993;27;20162;-70
2022/04/26 08:58:33;;;;;;;2.33;1.23;;;15.60;99.90;16.40;101908.00;;;;5120447;27;20197;-69
2022/04/26 09:01:22;;;;;;;0.57;0.43;;;16.10;99.90;16.50;101933.00;;;;5097754;28;20187;-78
2022/04/26 09:03:54;;;;;;;0.70;0.70;;;16.30;99.90;15.90;101956.00;;;;5117221;27;20188;-68
2022/04/26 09:06:30;;;;;;;4.67;1.20;;;16.40;99.90;16.50;101951.00;;;;5135732;27;20188;-66
2022/04/26 09:09:18;;;;;;;1.42;0.95;;;16.40;99.90;16.10;101938.00;;;;5135425;27;20669;-67
2022/04/26 09:11:46;;;;;;;0.90;0.80;;;16.70;99.90;16.30;101897.00;;;;5132531;27;20281;-67
2022/04/26 09:14:35;;;;;;;0.47;0.47;;;16.70;99.90;16.10;101879.00;;;;5134484;27;20184;-67
2022/04/26 09:17:11;;;;;;;4.70;1.67;;;16.30;99.90;14.20;101851.00;;;;5133433;27;20174;-67
2022/04/26 09:19:55;;;;;;;0.37;0.37;;;15.40;99.90;15.50;101870.00;;;;5135532;27;20381;-68
2022/04/26 09:22:32;;;;;;;2.13;0.57;;;15.40;99.90;14.70;101878.00;;;;5134099;27;20182;-67
2022/04/26 09:25:06;;;;;;;0.80;0.80;;;15.40;99.90;15.80;101880.00;;;;5117180;27;20181;-68
2022/04/26 09:27:38;;;;;;;0.37;0.37;;;15.70;99.90;15.40;101886.00;;;;5135798;27;20161;-68
2022/04/26 09:30:12;;;;;;;1.33;1.23;;;15.90;99.90;15.80;101879.00;;;;5135653;27;20172;-68
2022/04/26 09:32:48;;;;;;;0.67;0.67;;;15.80;99.90;15.50;101880.00;;;;5116911;27;20558;-67
2022/04/26 09:35:22;;;;;;;0.67;0.63;;;15.70;99.90;15.40;101884.00;;;;5134388;27;20195;-68
2022/04/26 09:37:49;;;;;;;1.03;1.03;;;15.70;99.90;15.00;101889.00;;;;5134242;27;20535;-68
2022/04/26 09:40:20;;;;;;;0.30;0.30;;;15.40;99.90;15.70;101886.00;;;;5116670;27;20188;-69
2022/04/26 09:42:48;;;;;;;0.73;0.73;;;15.60;99.90;15.80;101886.00;;;;5133808;27;20257;-68
2022/04/26 09:45:16;;;;;;;1.03;0.90;;;15.70;99.90;15.30;101880.00;;;;5116939;27;20224;-68
2022/04/26 09:47:43;;;;;;;0.43;0.43;;;15.80;99.90;14.80;101881.00;;;;5117017;27;20182;-67
2022/04/26 09:50:17;;;;;;;0.37;0.37;;;15.30;99.90;15.60;101874.00;;;;5133819;27;20193;-68
2022/04/26 09:52:43;;;;;;;1.27;1.17;;;15.60;99.90;14.20;101885.00;;;;5133729;27;20741;-67
2022/04/26 09:55:13;;;;;;;0.50;0.50;;;15.20;99.90;14.40;101888.00;;;;5133574;27;20532;-66
2022/04/26 09:57:44;;;;;;;0.53;0.53;;;14.80;99.90;14.50;101886.00;;;;5133901;27;20203;-66
2022/04/26 10:00:12;;;;;;;1.77;1.47;;;14.90;99.90;14.20;101899.00;;;;5116312;27;20609;-66
2022/04/26 10:02:46;;;;;;;0.90;0.83;;;14.60;99.90;14.90;101892.00;;;;5133543;27;20211;-67
2022/04/26 10:05:15;;;;;;;3.83;1.07;;;15.10;99.90;15.10;101870.00;;;;5116162;27;20270;-69
2022/04/26 10:07:47;;;;;;;0.93;0.93;;;15.40;99.90;15.80;101889.00;;;;5133890;27;20197;-67
2022/04/26 10:10:14;;;;;;;1.37;1.27;;;15.70;99.90;15.50;101860.00;;;;5117032;27;20544;-67
2022/04/26 10:13:31;;;;;;;1.50;1.10;;;15.90;99.90;14.80;101897.00;;;;5133227;27;20218;-66
2022/04/26 10:15:30;;;;;;;2.33;1.00;;;15.40;99.90;14.90;101895.00;;;;5132988;27;20198;-66
2022/04/26 10:17:56;;;;;;;2.80;1.77;;;15.30;99.90;15.00;101907.00;;;;5116226;27;20184;-67
2022/04/26 10:43:33;;;;;;;1.80;1.17;;;15.90;99.90;15.90;101892.00;;;;5148565;27;176133;-66
2022/04/26 10:46:15;;;;;;;0.30;0.30;;;16.10;99.90;15.80;101901.00;;;;5116041;27;20630;-70
2022/04/26 10:48:41;;;;;;;0.50;0.50;;;16.10;99.90;15.10;101901.00;;;;5133106;27;20261;-72
2022/04/26 10:51:36;;;;;;;0.73;0.73;;;15.70;99.90;16.50;101916.00;;;;5133376;27;20201;-72
2022/04/26 10:54:05;;;;;;;9.00;1.47;;;16.20;99.90;16.90;101910.00;;;;5116097;27;20626;-72
2022/04/26 10:56:33;;;;;;;1.30;0.60;;;17.00;99.90;16.40;101904.00;;;;5132761;27;20632;-72
2022/04/26 10:58:59;;;;;;;1.30;0.83;;;16.70;99.90;16.10;101921.00;;;;5109183;28;20191;-72
2022/04/26 11:01:29;;;;;;;0.30;0.30;;;16.60;99.90;16.30;101918.00;;;;5128975;28;20191;-67
2022/04/26 11:03:57;;;;;;;2.27;0.47;;;16.40;99.90;17.20;101881.00;;;;5112973;28;20179;-66
2022/04/26 11:06:37;;;;;;;0.83;0.83;;;16.90;99.90;16.50;101908.00;;;;5111739;28;20549;-68
2022/04/26 11:09:16;;;;;;;2.83;0.40;;;16.90;99.90;16.70;101907.00;;;;5130142;28;20704;-70
2022/04/26 11:11:54;;;;;;;1.00;0.83;;;16.90;99.90;15.80;101925.00;;;;5112261;28;20251;-68
2022/04/26 11:14:22;;;;;;;2.10;1.80;;;16.60;99.90;16.00;101931.00;;;;5111593;28;20177;-67
2022/04/26 11:17:00;;;;;;;0.20;0.20;;;16.40;99.90;17.20;101882.00;;;;5112215;28;20650;-71
2022/04/26 11:19:37;;;;;;;1.10;0.93;;;16.80;99.90;16.20;101888.00;;;;5112055;28;20269;-71
2022/04/26 11:22:05;;;;;;;0.47;0.47;;;16.80;99.90;15.80;101930.00;;;;5111687;28;20173;-71
2022/04/26 11:30:47;;;;;;;2.10;1.40;;;16.00;99.90;16.10;101910.00;;;;5114512;28;20183;-71
2022/04/26 11:33:19;;;;;;;3.40;0.93;;;16.40;99.90;15.80;101932.00;;;;5112229;28;20175;-71
2022/04/26 11:35:58;;;;;;;0.73;0.73;;;16.40;99.90;17.00;101888.00;;;;5112513;28;20171;-71
2022/04/26 11:38:25;;;;;;;2.83;1.03;;;16.90;99.90;16.30;101923.00;;;;5112016;28;20431;-71
2022/04/26 11:41:02;;;;;;;0.37;0.37;;;16.90;99.90;15.90;101943.00;;;;5111869;28;20601;-71
2022/04/26 11:43:31;;;;;;;0.70;0.30;;;16.30;99.90;16.30;101931.00;;;;5104211;28;20191;-72
2022/04/26 11:45:58;;;;;;;1.17;1.13;;;16.30;99.90;16.40;101926.00;;;;5098400;28;20181;-69
2022/04/26 11:48:29;;;;;;;1.40;1.03;;;16.50;99.90;16.80;101896.00;;;;5097953;28;20187;-68
2022/04/26 11:50:57;;;;;;;0.43;0.43;;;16.60;99.90;17.10;101916.00;;;;5098445;28;20176;-68
2022/04/26 11:53:37;;;;;;;0.10;0.10;;;17.00;99.90;16.80;101914.00;;;;5098143;28;20201;-68
2022/04/26 11:56:06;;;;;;;1.80;0.93;;;16.90;99.90;16.80;101920.00;;;;5101422;28;20211;-68
2022/04/26 11:58:37;;;;;;;0.30;0.30;;;16.80;99.90;16.90;101921.00;;;;5098287;28;20177;-69
2022/04/26 12:01:12;;;;;;;0.70;0.70;;;17.10;99.90;16.10;101939.00;;;;5080609;28;20180;-68
2022/04/26 12:03:51;;;;;;;1.10;1.03;;;16.70;99.90;15.40;101908.00;;;;5098261;28;20253;-69
2022/04/26 12:06:39;;;;;;;2.23;0.93;;;16.00;99.90;15.20;101918.00;;;;5098374;28;20711;-68
2022/04/26 12:09:08;;;;;;;0.93;0.93;;;15.80;99.90;15.70;101973.00;;;;5098612;28;20177;-69
2022/04/26 12:11:44;;;;;;;0.23;0.20;;;15.60;99.90;16.40;101948.00;;;;5097686;28;20569;-69
2022/04/26 12:14:16;;;;;;;1.73;1.53;;;16.10;99.90;16.30;101966.00;;;;5081421;28;20185;-68
2022/04/26 12:16:47;;;;;;;1.87;1.50;;;16.40;99.90;15.50;101969.00;;;;5097624;28;20516;-71
2022/04/26 12:19:13;;;;;;;1.67;1.07;;;15.90;99.90;15.80;101962.00;;;;5081080;28;20190;-69
2022/04/26 12:21:51;;;;;;;2.90;1.80;;;16.00;99.90;15.80;101921.00;;;;5097820;28;20166;-69
2022/04/26 12:24:22;;;;;;;2.77;2.57;;;15.90;99.90;15.40;101966.00;;;;5115863;28;20200;-68
2022/04/26 12:26:54;;;;;;;0.40;0.40;;;15.70;99.90;16.30;101969.00;;;;5097350;28;20646;-67
2022/04/26 12:29:23;;;;;;;0.77;0.53;;;16.00;99.90;16.80;101951.00;;;;5096928;28;20658;-69
2022/04/26 12:31:50;;;;;;;1.70;1.60;;;16.40;99.90;17.10;101956.00;;;;5097305;28;20690;-70
2022/04/26 12:34:25;;;;;;;0.70;0.70;;;16.80;99.90;16.20;101967.00;;;;5096424;28;20258;-71
2022/04/26 12:37:34;;;;;;;0.83;0.83;;;16.50;99.90;16.10;101963.00;;;;5096802;28;20174;-70
2022/04/26 12:40:10;;;;;;;1.57;0.67;;;16.30;99.90;16.40;101971.00;;;;5089774;28;20193;-71
2022/04/26 12:42:42;;;;;;;1.17;1.10;;;16.20;99.90;16.40;101960.00;;;;5115109;28;20640;-72
2022/04/26 12:45:21;;;;;;;0.73;0.73;;;16.50;99.90;15.60;101942.00;;;;5096279;28;20228;-67
2022/04/26 12:50:56;;;;;;;1.20;0.80;;;16.10;99.90;16.30;101986.00;;;;5099961;28;20192;-66
2022/04/26 12:53:28;;;;;;;0.90;0.77;;;16.20;99.90;15.60;101967.00;;;;5095840;28;20544;-66
2022/04/26 12:56:06;;;;;;;0.37;0.37;;;15.90;99.90;15.90;101984.00;;;;5096025;28;20181;-66
2022/04/26 12:58:41;;;;;;;1.10;0.97;;;15.80;99.90;16.50;101979.00;;;;5096142;28;20177;-66
2022/04/26 13:01:08;;;;;;;0.50;0.50;;;16.20;99.90;16.10;101945.00;;;;5115250;28;20172;-66
2022/04/26 13:03:36;;;;;;;1.30;1.20;;;16.10;99.90;16.30;101977.00;;;;5114253;28;20185;-66
2022/04/26 13:06:18;;;;;;;0.70;0.57;;;16.30;99.90;16.30;101976.00;;;;5095481;28;20183;-66
2022/04/26 13:08:49;;;;;;;0.63;0.63;;;16.40;99.90;16.10;101982.00;;;;5080188;28;20190;-66
2022/04/26 13:11:18;;;;;;;1.43;1.23;;;16.30;99.90;16.00;101984.00;;;;5078837;28;20295;-66
2022/04/26 13:13:48;;;;;;;0.13;0.13;;;16.20;99.90;16.40;101979.00;;;;5095642;28;20251;-67
2022/04/26 13:16:14;;;;;;;0.27;0.27;;;16.30;99.90;16.20;101992.00;;;;5096656;28;20626;-65
2022/04/26 13:18:40;;;;;;;0.30;0.30;;;16.30;99.90;16.70;101990.00;;;;5113998;28;20200;-65
2022/04/26 13:21:06;;;;;;;0.67;0.67;;;16.40;99.90;17.00;101974.00;;;;5103738;27;20204;-65
2022/04/26 13:23:34;;;;;;;1.00;1.00;;;16.70;99.90;17.20;101973.00;;;;5114789;27;20233;-66
2022/04/26 13:26:02;;;;;;;0.80;0.80;;;17.00;99.90;17.80;101976.00;;;;5101709;28;20186;-65
2022/04/26 13:28:29;;;;;;;0.23;0.23;;;17.40;99.90;17.00;101968.00;;;;5116334;27;20177;-65
2022/04/26 13:30:55;;;;;;;2.10;2.00;;;17.10;99.90;16.90;101981.00;;;;5116373;27;20538;-65
2022/04/26 13:33:21;;;;;;;0.60;0.60;;;17.00;99.90;16.70;101972.00;;;;5110879;28;20186;-65
2022/04/26 13:35:47;;;;;;;0.50;0.50;;;16.80;99.90;16.10;101964.00;;;;5096220;28;20179;-64
2022/04/26 13:38:15;;;;;;;0.53;0.53;;;16.30;99.90;15.90;101998.00;;;;5114299;28;20237;-65
2022/04/26 13:40:42;;;;;;;1.87;1.20;;;16.20;99.90;16.00;102003.00;;;;5114709;28;20181;-64
2022/04/26 13:43:12;;;;;;;0.43;0.43;;;16.00;99.90;16.30;101948.00;;;;5108626;27;20221;-66
2022/04/26 13:45:39;;;;;;;1.07;1.07;;;16.10;99.90;17.00;101964.00;;;;5134210;27;20181;-66
2022/04/26 13:48:11;;;;;;;0.80;0.77;;;16.50;99.90;16.70;101982.00;;;;5134657;27;20243;-65
2022/04/26 13:50:40;;;;;;;0.70;0.70;;;16.70;99.90;16.30;101984.00;;;;5133595;27;20165;-65
2022/04/26 13:53:06;;;;;;;0.30;0.30;;;16.30;99.90;16.10;101984.00;;;;5134447;27;20206;-64
2022/04/26 13:55:33;;;;;;;4.47;0.90;;;16.20;99.90;16.00;101989.00;;;;5116241;27;20180;-65
2022/04/26 13:58:05;;;;;;;2.20;1.70;;;16.00;99.90;15.70;101989.00;;;;5134040;27;20178;-65
2022/04/26 14:00:34;;;;;;;0.80;0.80;;;15.80;99.90;15.90;101975.00;;;;5116439;27;20175;-66
2022/04/26 14:03:03;;;;;;;3.10;1.87;;;15.80;99.90;16.20;101985.00;;;;5134345;27;20213;-64
2022/04/26 14:05:33;;;;;;;3.20;2.03;;;16.10;99.90;15.90;101984.00;;;;5134658;27;20185;-65
2022/04/26 14:07:58;;;;;;;2.93;0.93;;;15.80;99.90;15.70;101980.00;;;;5133278;27;20185;-65
2022/04/26 14:10:24;;;;;;;0.53;0.53;;;15.70;99.90;16.00;101976.00;;;;5132594;27;20268;-65
2022/04/26 14:12:50;;;;;;;1.43;0.97;;;15.80;99.90;16.20;101968.00;;;;5133822;27;20203;-65
2022/04/26 14:23:33;;;;;;;1.47;1.37;;;15.40;99.90;15.10;101987.00;;;;5134002;27;20237;-64
2022/04/26 14:26:03;;;;;;;0.37;0.37;;;15.20;99.90;15.50;101932.00;;;;5134564;27;20163;-72
2022/04/26 14:28:31;;;;;;;1.00;1.00;;;15.30;99.90;15.00;101986.00;;;;5098059;28;20251;-67
2022/04/26 14:30:59;;;;;;;0.60;0.60;;;15.30;99.90;15.10;101994.00;;;;5133654;28;20177;-69
2022/04/26 14:33:28;;;;;;;1.57;1.03;;;15.20;99.90;15.70;101991.00;;;;5115256;28;20183;-68
2022/04/26 14:35:54;;;;;;;0.60;0.60;;;15.50;99.90;15.00;101958.00;;;;5115664;28;20613;-68
2022/04/26 14:38:20;;;;;;;1.73;1.17;;;15.30;99.90;15.30;101938.00;;;;5113419;28;20262;-67
2022/04/26 14:40:46;;;;;;;1.23;1.13;;;15.20;99.90;15.00;101991.00;;;;5115404;28;20342;-68
2022/04/26 14:43:14;;;;;;;1.40;0.90;;;15.20;99.90;15.10;102000.00;;;;5115447;28;20213;-68
2022/04/26 14:45:45;;;;;;;0.77;0.77;;;15.10;99.90;14.80;101991.00;;;;5133873;28;20183;-69
2022/04/26 14:48:14;;;;;;;0.70;0.70;;;14.90;99.90;15.30;101993.00;;;;5115204;28;20181;-69
2022/04/26 14:50:41;;;;;;;0.50;0.40;;;15.10;99.90;15.20;101993.00;;;;5115746;28;20164;-68
2022/04/26 14:53:10;;;;;;;0.53;0.53;;;15.10;99.90;15.30;101991.00;;;;5133951;28;20251;-68
2022/04/26 14:55:39;;;;;;;0.43;0.43;;;15.20;99.90;15.40;101985.00;;;;5120172;28;20261;-68
2022/04/26 14:58:09;;;;;;;1.97;1.50;;;15.20;99.90;15.20;102002.00;;;;5132070;28;20186;-68
2022/04/26 15:00:36;;;;;;;1.23;1.07;;;15.20;99.90;15.00;102006.00;;;;5114180;28;20176;-68
2022/04/26 15:03:03;;;;;;;0.40;0.40;;;15.10;99.90;14.60;101957.00;;;;5113320;28;20265;-68
2022/04/26 15:05:31;;;;;;;1.37;1.27;;;14.80;99.90;14.30;102006.00;;;;5113594;28;20186;-68
2022/04/26 15:10:50;;;;;;;1.63;1.53;;;14.50;99.90;14.20;102008.00;;;;5133524;28;20188;-69
2022/04/26 15:18:46;;;;;;;1.70;1.60;;;14.60;99.90;14.70;101951.00;;;;5119647;27;20195;-66
2022/04/26 15:21:12;;;;;;;2.77;2.30;;;14.60;99.90;14.80;102010.00;;;;5117213;27;20642;-67
2022/04/26 15:23:38;;;;;;;1.90;1.17;;;14.70;99.90;14.70;101992.00;;;;5101630;27;20187;-69
2022/04/26 15:26:10;;;;;;;0.93;0.93;;;14.70;99.90;14.80;102015.00;;;;5116583;27;20194;-69
2022/04/26 15:28:37;;;;;;;1.17;0.77;;;14.80;99.90;15.00;102005.00;;;;5119520;27;20442;-68
2022/04/26 15:31:05;;;;;;;1.23;1.07;;;14.90;99.90;14.80;102005.00;;;;5116061;27;20194;-68
2022/04/26 15:33:31;;;;;;;1.50;1.33;;;14.80;99.90;14.70;102009.00;;;;5119518;27;20181;-67
2022/04/26 15:36:00;;;;;;;0.90;0.77;;;14.70;99.90;14.90;102007.00;;;;5101226;27;20172;-66
2022/04/26 15:38:29;;;;;;;2.90;1.20;;;14.80;99.90;14.60;101949.00;;;;5101671;27;20182;-67
2022/04/26 15:41:01;;;;;;;0.83;0.83;;;14.60;99.90;14.40;102003.00;;;;5118907;27;20175;-66